Barfleur — FNIE — position and weather

sailwx.info

Track history (hours):
 
Tides and Currents Weather Stations Pressure Air Temp Water Temp Dewpoint Dewpoint Depression Visibility Wind Speed Wind Dir Waves Ship Positions

Barfleur

Operator: Brittany Ferries

Last reported at 2019-Nov-27 11:22 UTC. Time now 2019-Dec-08 10:09 UTC.
Position N 43°27' W 003°48'.
Warning: this ship's position is 10 days out of date.

Length 158 m; draft 5 m.

Type: Ship. MMSI: 227289000.

Date/timePositionNaut miles runAvg speedWind from/ knotsBaromVisibWave heightAir tempDewpointWater temp
2019-Nov-27 11:22N 43°27' W 003°48'0 0.0
2019-Nov-27 09:58N 43°27' W 003°48'0 0.0
2019-Nov-27 09:26N 43°27' W 003°48'0 0.0
2019-Nov-27 08:13N 43°27' W 003°48'0 0.0
2019-Nov-26 22:16N 43°27' W 003°48'0 0.0
2019-Nov-26 21:29N 43°27' W 003°48'0 0.0
2019-Nov-26 18:30N 43°27' W 003°48'6 0.8
2019-Nov-26 10:30N 43°33' W 003°46'3 1.7
2019-Nov-26 09:00N 43°34' W 003°43'2214.2
2019-Nov-26 07:29N 43°48' W 003°20'715.2
2019-Nov-26 07:00N 43°52' W 003°11'815.5
2019-Nov-26 06:30N 43°57' W 003°03'1414.2
2019-Nov-26 05:30N 44°06' W 002°48'2813.8
2019-Nov-26 03:31N 44°32' W 002°35'17112.0
2019-Nov-25 13:17N 47°15' W 003°46'4610.8
2019-Nov-25 09:00N 47°43' W 004°40'12910.3
2019-Nov-24 20:31N 49°19' W 002°31'44 5.2
2019-Nov-24 12:09N 49°49' W 001°42'5414.8
2019-Nov-24 08:30N 50°42' W 001°58'1 0.4
2019-Nov-24 06:30N 50°42' W 001°60'1912.3
2019-Nov-24 04:58N 50°25' W 001°49'3 0.2
2019-Nov-23 15:30N 50°22' W 001°50'21 8.5
2019-Nov-23 13:00N 50°42' W 001°59'0 0.0
2019-Nov-23 12:30N 50°42' W 001°59'10 0.7
2019-Nov-22 22:30N 50°33' W 001°53'10 9.8
2019-Nov-22 21:30N 50°42' W 001°59'0 0.0
2019-Nov-22 20:00N 50°42' W 001°59'0 0.0
2019-Nov-22 19:31N 50°42' W 001°59'3 0.3
2019-Nov-22 09:00N 50°40' W 001°56'3 6.4
2019-Nov-22 08:28N 50°42' W 001°59'0 0.0
2019-Nov-22 07:28N 50°42' W 001°59'0 0.0
2019-Nov-22 07:00N 50°42' W 001°59'8 7.9
2019-Nov-22 06:00N 50°36' W 001°53'13 1.0
2019-Nov-21 16:38N 50°22' W 001°50'1016.0
2019-Nov-21 16:00N 50°32' W 001°52'714.7
2019-Nov-21 15:31N 50°39' W 001°55'0 0.1
2019-Nov-21 12:31N 50°40' W 001°56'816.4
2019-Nov-21 12:01N 50°32' W 001°51'2 0.2
2019-Nov-20 22:31N 50°30' W 001°53'611.1
2019-Nov-20 22:00N 50°36' W 001°54'611.3
2019-Nov-20 21:30N 50°41' W 001°57'2 3.6
2019-Nov-20 21:00N 50°42' W 001°59'0 0.0
2019-Nov-20 20:00N 50°42' W 001°59'11 7.2
2019-Nov-20 18:30N 50°33' W 001°51'11 1.1
2019-Nov-20 08:28N 50°42' W 001°59'0 0.0
2019-Nov-20 07:28N 50°42' W 001°59'2 1.8
2019-Nov-20 06:30N 50°42' W 001°57'2 0.1
2019-Nov-19 14:31N 50°42' W 001°59'0 0.0
2019-Nov-19 13:31N 50°42' W 001°59'7 0.5
2019-Nov-18 23:30N 50°36' W 001°54'7 7.1
2019-Nov-18 22:30N 50°42' W 001°59'0 0.0
2019-Nov-18 22:00N 50°42' W 001°59'0 0.0
2019-Nov-18 21:30N 50°42' W 001°59'0 0.0
2019-Nov-18 20:30N 50°42' W 001°59'0 0.0
2019-Nov-18 20:00N 50°42' W 001°59'0 0.0
2019-Nov-18 19:30N 50°42' W 001°59'18 0.9
2019-Nov-17 22:57N 50°25' W 001°49'1112.0
2019-Nov-17 22:00N 50°36' W 001°54'7 3.6
2019-Nov-17 20:00N 50°42' W 001°59'  
Track history (hours):
 
Tides and Currents Weather Stations Pressure Air Temp Water Temp Dewpoint Dewpoint Depression Visibility Wind Speed Wind Dir Waves Ship Positions

Barfleur

Operator: Brittany Ferries

Last reported at 2019-Nov-27 11:22 UTC. Time now 2019-Dec-08 10:09 UTC.
Position N 43°27' W 003°48'.
Warning: this ship's position is 10 days out of date.

Length 158 m; draft 5 m.

Type: Ship. MMSI: 227289000.

Date/timePositionNaut miles runAvg speedWind from/ knotsBaromVisibWave heightAir tempDewpointWater temp
2019-Nov-27 11:22N 43°27' W 003°48'0 0.0
2019-Nov-27 09:58N 43°27' W 003°48'0 0.0
2019-Nov-27 09:26N 43°27' W 003°48'0 0.0
2019-Nov-27 08:13N 43°27' W 003°48'0 0.0
2019-Nov-26 22:16N 43°27' W 003°48'0 0.0
2019-Nov-26 21:29N 43°27' W 003°48'0 0.0
2019-Nov-26 18:30N 43°27' W 003°48'6 0.8
2019-Nov-26 10:30N 43°33' W 003°46'3 1.7
2019-Nov-26 09:00N 43°34' W 003°43'2214.2
2019-Nov-26 07:29N 43°48' W 003°20'715.2
2019-Nov-26 07:00N 43°52' W 003°11'815.5
2019-Nov-26 06:30N 43°57' W 003°03'1414.2
2019-Nov-26 05:30N 44°06' W 002°48'2813.8
2019-Nov-26 03:31N 44°32' W 002°35'17112.0
2019-Nov-25 13:17N 47°15' W 003°46'4610.8
2019-Nov-25 09:00N 47°43' W 004°40'12910.3
2019-Nov-24 20:31N 49°19' W 002°31'44 5.2
2019-Nov-24 12:09N 49°49' W 001°42'5414.8
2019-Nov-24 08:30N 50°42' W 001°58'1 0.4
2019-Nov-24 06:30N 50°42' W 001°60'1912.3
2019-Nov-24 04:58N 50°25' W 001°49'3 0.2
2019-Nov-23 15:30N 50°22' W 001°50'21 8.5
2019-Nov-23 13:00N 50°42' W 001°59'0 0.0
2019-Nov-23 12:30N 50°42' W 001°59'10 0.7
2019-Nov-22 22:30N 50°33' W 001°53'10 9.8
2019-Nov-22 21:30N 50°42' W 001°59'0 0.0
2019-Nov-22 20:00N 50°42' W 001°59'0 0.0
2019-Nov-22 19:31N 50°42' W 001°59'3 0.3
2019-Nov-22 09:00N 50°40' W 001°56'3 6.4
2019-Nov-22 08:28N 50°42' W 001°59'0 0.0
2019-Nov-22 07:28N 50°42' W 001°59'0 0.0
2019-Nov-22 07:00N 50°42' W 001°59'8 7.9
2019-Nov-22 06:00N 50°36' W 001°53'13 1.0
2019-Nov-21 16:38N 50°22' W 001°50'1016.0
2019-Nov-21 16:00N 50°32' W 001°52'714.7
2019-Nov-21 15:31N 50°39' W 001°55'0 0.1
2019-Nov-21 12:31N 50°40' W 001°56'816.4
2019-Nov-21 12:01N 50°32' W 001°51'2 0.2
2019-Nov-20 22:31N 50°30' W 001°53'611.1
2019-Nov-20 22:00N 50°36' W 001°54'611.3
2019-Nov-20 21:30N 50°41' W 001°57'2 3.6
2019-Nov-20 21:00N 50°42' W 001°59'0 0.0
2019-Nov-20 20:00N 50°42' W 001°59'11 7.2
2019-Nov-20 18:30N 50°33' W 001°51'11 1.1
2019-Nov-20 08:28N 50°42' W 001°59'0 0.0
2019-Nov-20 07:28N 50°42' W 001°59'2 1.8
2019-Nov-20 06:30N 50°42' W 001°57'2 0.1
2019-Nov-19 14:31N 50°42' W 001°59'0 0.0
2019-Nov-19 13:31N 50°42' W 001°59'7 0.5
2019-Nov-18 23:30N 50°36' W 001°54'7 7.1
2019-Nov-18 22:30N 50°42' W 001°59'0 0.0
2019-Nov-18 22:00N 50°42' W 001°59'0 0.0
2019-Nov-18 21:30N 50°42' W 001°59'0 0.0
2019-Nov-18 20:30N 50°42' W 001°59'0 0.0
2019-Nov-18 20:00N 50°42' W 001°59'0 0.0
2019-Nov-18 19:30N 50°42' W 001°59'18 0.9
2019-Nov-17 22:57N 50°25' W 001°49'1112.0
2019-Nov-17 22:00N 50°36' W 001°54'7 3.6
2019-Nov-17 20:00N 50°42' W 001°59'  

Dump ship's entire track history